ハルビン の空港の天気 - METARとTAF

ハルビン太平国際空港 ( ZYHB / HRB ) - 中国 黒竜江省ハルビン市
飛行場実況気象(Metar)
観測時間02/18 07:00 CST (02/17 23:00 UTC)
風向・風速南南西 5m/s
視程10km以上
天気現象
なし
気温-9℃
湿度52%
気圧1018hPa
METARZYHB 172300Z 20005MPS CAVOK M09/M17 Q1018 NOSIG
過去の天気等 Google飛行場航空写真 Wunderground天気予報

過去48時間のMETAR

飛行場予報(TAF)
発表時間: 2/17 23:02 CST (2/17 15:02 UTC)
予報対象時間: 18日2時 CST ~ 19日2時 CST
風向・風速西南西 4m/s
視程6000m
なし
TAF ZYHB 171502Z 1718/1818 25004MPS 6000 NSC TX03/1806Z TNM11/21Z